Time;durP1;ratioP1;P1;durP2;ratioP2;P2;SDS_P1;SDS_P2;PMS_P1;PMS_P2;Temp;Humidity;BMP_temperature;BMP_pressure;BME280_temperature;BME280_humidity;BME280_pressure;Samples;Min_cycle;Max_cycle;Signal;HPM_P1;HPM_P2
2023/05/19 00:00:45;;;;;;;;;;;12.80;99.90;;;;;;5113900;28;20370;-64
2023/05/19 00:03:13;;;;;;;;;;;12.80;99.90;;;;;;5113776;28;19908;-63
2023/05/19 00:05:44;;;;;;;;;;;12.90;99.90;;;;;;5113732;28;19933;-64
2023/05/19 00:08:11;;;;;;;;;;;13.00;99.90;;;;;;5113826;28;20326;-64
2023/05/19 00:10:38;;;;;;;;;;;13.00;99.90;;;;;;5113933;28;19912;-63
2023/05/19 00:13:05;;;;;;;;;;;13.00;99.90;;;;;;5113779;28;19955;-64
2023/05/19 00:15:31;;;;;;;;;;;13.10;99.90;;;;;;5113821;28;20296;-63
2023/05/19 00:17:58;;;;;;;;;;;13.20;99.90;;;;;;5113436;28;19908;-63
2023/05/19 00:20:25;;;;;;;;;;;13.30;99.90;;;;;;5113622;28;19915;-64
2023/05/19 00:22:51;;;;;;;;;;;13.40;99.90;;;;;;5113596;28;19912;-64
2023/05/19 00:25:18;;;;;;;;;;;13.50;99.90;;;;;;5113751;28;19907;-64
2023/05/19 00:27:44;;;;;;;;;;;13.60;99.90;;;;;;5113698;28;20364;-63
2023/05/19 00:30:11;;;;;;;;;;;13.60;99.90;;;;;;5113430;28;19952;-64
2023/05/19 00:32:38;;;;;;;;;;;13.60;99.90;;;;;;5112828;28;19947;-64
2023/05/19 00:35:05;;;;;;;;;;;13.70;99.90;;;;;;5113439;28;20372;-64
2023/05/19 00:37:31;;;;;;;;;;;13.80;99.90;;;;;;5113321;28;19912;-64
2023/05/19 00:39:58;;;;;;;;;;;13.80;99.90;;;;;;5113090;28;20327;-64
2023/05/19 00:42:28;;;;;;;;;;;13.90;99.90;;;;;;5112301;28;21412;-63
2023/05/19 00:44:55;;;;;;;;;;;14.00;99.90;;;;;;5113416;28;19916;-64
2023/05/19 00:47:22;;;;;;;;;;;14.20;99.70;;;;;;5113374;28;19908;-64
2023/05/19 00:49:48;;;;;;;;;;;14.20;99.50;;;;;;5113690;28;19908;-64
2023/05/19 00:52:15;;;;;;;;;;;14.40;99.30;;;;;;5113563;28;19908;-64
2023/05/19 00:54:43;;;;;;;;;;;14.40;99.00;;;;;;5113412;28;19912;-64
2023/05/19 00:57:10;;;;;;;;;;;14.50;99.10;;;;;;5113201;28;20314;-64
2023/05/19 00:59:36;;;;;;;;;;;14.70;98.90;;;;;;5113145;28;19911;-65
2023/05/19 01:02:03;;;;;;;;;;;14.70;98.80;;;;;;5112999;28;20382;-63
2023/05/19 01:04:33;;;;;;;;;;;14.80;98.50;;;;;;5112770;28;19914;-62
2023/05/19 01:07:00;;;;;;;;;;;14.80;98.10;;;;;;5113162;28;19908;-62
2023/05/19 01:09:27;;;;;;;;;;;15.00;97.90;;;;;;5113071;28;19908;-63
2023/05/19 01:11:53;;;;;;;;;;;15.00;97.90;;;;;;5113015;28;20372;-63
2023/05/19 01:14:20;;;;;;;;;;;15.20;98.20;;;;;;5113444;28;20271;-63
2023/05/19 01:16:53;;;;;;;;;;;15.30;97.70;;;;;;5113077;28;19912;-63
2023/05/19 01:19:38;;;;;;;;;;;15.40;96.60;;;;;;5112932;28;19908;-63
2023/05/19 01:22:11;;;;;;;;;;;15.50;96.90;;;;;;5112965;28;20006;-64
2023/05/19 01:24:38;;;;;;;;;;;15.60;96.60;;;;;;5112924;28;20002;-64
2023/05/19 01:27:14;;;;;;;;;;;15.70;96.20;;;;;;5112948;28;19914;-64
2023/05/19 01:29:59;;;;;;;;;;;15.80;96.20;;;;;;5112929;28;19912;-64
2023/05/19 01:32:26;;;;;;;;;;;15.80;95.00;;;;;;5112716;28;19911;-64
2023/05/19 01:34:53;;;;;;;;;;;15.80;94.30;;;;;;5112780;28;19990;-64
2023/05/19 01:37:20;;;;;;;;;;;15.90;95.20;;;;;;5112862;28;19915;-63
2023/05/19 01:39:47;;;;;;;;;;;16.10;94.30;;;;;;5112630;28;19908;-64
2023/05/19 01:42:14;;;;;;;;;;;16.20;94.60;;;;;;5112695;28;19919;-64
2023/05/19 01:44:41;;;;;;;;;;;16.20;94.20;;;;;;5115160;28;20438;-64
2023/05/19 01:47:09;;;;;;;;;;;16.30;94.30;;;;;;5116495;28;19994;-64
2023/05/19 01:49:36;;;;;;;;;;;16.40;93.80;;;;;;5116548;28;19907;-63
2023/05/19 01:52:02;;;;;;;;;;;16.50;92.80;;;;;;5116423;28;19907;-64
2023/05/19 01:54:29;;;;;;;;;;;16.60;92.30;;;;;;5116349;28;19915;-64
2023/05/19 01:57:19;;;;;;;;;;;16.70;92.20;;;;;;5116393;28;20371;-65
2023/05/19 01:59:57;;;;;;;;;;;16.80;92.00;;;;;;5108334;28;19912;-64
2023/05/19 02:02:36;;;;;;;;;;;17.00;91.70;;;;;;5116292;28;19966;-64
2023/05/19 02:05:09;;;;;;;;;;;17.10;90.70;;;;;;5116082;28;19968;-64
2023/05/19 02:07:35;;;;;;;;;;;17.10;90.80;;;;;;5116164;28;20364;-64
2023/05/19 02:10:06;;;;;;;;;;;17.10;91.30;;;;;;5115994;28;19998;-65
2023/05/19 02:12:36;;;;;;;;;;;17.10;90.80;;;;;;5115847;28;19912;-64
2023/05/19 02:15:11;;;;;;;;;;;17.10;91.00;;;;;;5115792;28;20007;-64
2023/05/19 02:17:47;;;;;;;;;;;17.00;90.90;;;;;;5116072;28;19995;-64
2023/05/19 02:20:15;;;;;;;;;;;16.90;90.70;;;;;;5115426;28;19915;-63
2023/05/19 02:22:41;;;;;;;;;;;16.90;90.90;;;;;;5115838;28;20296;-64
2023/05/19 02:25:08;;;;;;;;;;;16.90;91.40;;;;;;5115954;28;19908;-64
2023/05/19 02:27:36;;;;;;;;;;;16.90;90.80;;;;;;5115712;28;20091;-64
2023/05/19 02:30:03;;;;;;;;;;;16.90;90.90;;;;;;5115546;28;19908;-64
2023/05/19 02:32:29;;;;;;;;;;;16.90;90.80;;;;;;5115631;28;19915;-63
2023/05/19 02:34:56;;;;;;;;;;;17.00;89.50;;;;;;5115576;28;19915;-63
2023/05/19 02:37:24;;;;;;;;;;;16.90;89.80;;;;;;5115708;28;19908;-63
2023/05/19 02:39:50;;;;;;;;;;;16.90;90.10;;;;;;5115214;28;19907;-64
2023/05/19 02:42:17;;;;;;;;;;;17.10;90.10;;;;;;5115032;28;19919;-63
2023/05/19 02:44:44;;;;;;;;;;;17.10;89.90;;;;;;5115451;28;19915;-64
2023/05/19 02:47:10;;;;;;;;;;;17.40;89.70;;;;;;5115054;28;19908;-64
2023/05/19 02:49:37;;;;;;;;;;;17.60;87.00;;;;;;5115190;28;19915;-63
2023/05/19 02:52:04;;;;;;;;;;;17.80;87.80;;;;;;5115208;28;19994;-64
2023/05/19 02:54:31;;;;;;;;;;;18.00;87.40;;;;;;5114804;28;19908;-63
2023/05/19 02:56:58;;;;;;;;;;;18.00;86.70;;;;;;5115158;28;19914;-63
2023/05/19 02:59:24;;;;;;;;;;;18.10;84.20;;;;;;5115253;28;19951;-64
2023/05/19 03:01:54;;;;;;;;;;;18.40;85.80;;;;;;5115116;28;19919;-63
2023/05/19 03:04:21;;;;;;;;;;;19.30;84.70;;;;;;5114938;28;19908;-64
2023/05/19 03:06:47;;;;;;;;;;;20.60;80.50;;;;;;5114523;28;19912;-64
2023/05/19 03:09:14;;;;;;;;;;;21.90;77.80;;;;;;5114823;28;20328;-64
2023/05/19 03:11:41;;;;;;;;;;;22.90;75.50;;;;;;5115126;28;19908;-64
2023/05/19 03:14:13;;;;;;;;;;;23.10;75.20;;;;;;5115106;28;20280;-63
2023/05/19 03:16:42;;;;;;;;;;;22.80;72.60;;;;;;5114774;28;19912;-64
2023/05/19 03:19:09;;;;;;;;;;;22.40;73.20;;;;;;5114851;28;19908;-63
2023/05/19 03:21:36;;;;;;;;;;;22.20;75.50;;;;;;5114498;28;19926;-64
2023/05/19 03:24:03;;;;;;;;;;;22.30;73.80;;;;;;5114672;28;19919;-64
2023/05/19 03:26:29;;;;;;;;;;;22.20;73.30;;;;;;5114915;28;19960;-64
2023/05/19 03:28:56;;;;;;;;;;;22.20;73.60;;;;;;5115552;28;19976;-64
2023/05/19 03:31:22;;;;;;;;;;;22.10;73.30;;;;;;5114925;28;19908;-64
2023/05/19 03:33:49;;;;;;;;;;;22.80;73.60;;;;;;5114550;28;20269;-64
2023/05/19 03:36:16;;;;;;;;;;;24.30;70.60;;;;;;5114267;28;19912;-65
2023/05/19 03:38:43;;;;;;;;;;;26.30;67.90;;;;;;5114151;28;19931;-64
2023/05/19 03:41:09;;;;;;;;;;;28.20;63.80;;;;;;5113947;28;19967;-64
2023/05/19 03:43:36;;;;;;;;;;;29.50;61.40;;;;;;5114280;28;19914;-63
2023/05/19 03:46:03;;;;;;;;;;;30.60;57.00;;;;;;5114126;28;19962;-65
2023/05/19 03:48:29;;;;;;;;;;;31.50;55.60;;;;;;5114336;28;19914;-66
2023/05/19 03:50:56;;;;;;;;;;;31.80;54.20;;;;;;5114321;28;19908;-64
2023/05/19 03:53:23;;;;;;;;;;;32.20;52.70;;;;;;5113953;28;20010;-64
2023/05/19 03:55:50;;;;;;;;;;;32.20;50.50;;;;;;5114075;28;19908;-64
2023/05/19 03:58:17;;;;;;;;;;;32.40;50.10;;;;;;5113991;28;19914;-64
2023/05/19 04:00:44;;;;;;;;;;;32.20;48.60;;;;;;5113825;28;19915;-64
2023/05/19 04:03:10;;;;;;;;;;;32.30;49.40;;;;;;5113638;28;19908;-64
2023/05/19 04:05:37;;;;;;;;;;;32.40;48.10;;;;;;5113724;28;20225;-64
2023/05/19 04:08:04;;;;;;;;;;;32.50;48.70;;;;;;5112990;28;20381;-66
2023/05/19 04:10:31;;;;;;;;;;;32.20;47.90;;;;;;5113736;28;19954;-65
2023/05/19 04:12:57;;;;;;;;;;;32.10;49.00;;;;;;5113504;28;19915;-64
2023/05/19 04:15:24;;;;;;;;;;;31.30;47.70;;;;;;5113716;28;19908;-64
2023/05/19 04:17:51;;;;;;;;;;;30.40;48.80;;;;;;5113630;28;19914;-64
2023/05/19 04:20:17;;;;;;;;;;;28.90;49.90;;;;;;5113512;28;19915;-64
2023/05/19 04:22:44;;;;;;;;;;;27.20;50.90;;;;;;5113321;28;19923;-64
2023/05/19 04:25:11;;;;;;;;;;;26.00;53.50;;;;;;5113524;28;19915;-64
2023/05/19 04:27:38;;;;;;;;;;;25.00;54.60;;;;;;5113540;28;19934;-64
2023/05/19 04:30:05;;;;;;;;;;;23.70;54.30;;;;;;5113304;28;19961;-64
2023/05/19 04:32:32;;;;;;;;;;;23.10;56.80;;;;;;5112945;28;19911;-64
2023/05/19 04:34:58;;;;;;;;;;;22.60;57.30;;;;;;5113664;28;19961;-63
2023/05/19 04:37:25;;;;;;;;;;;22.10;57.80;;;;;;5113498;28;19908;-64
2023/05/19 04:39:53;;;;;;;;;;;21.80;59.20;;;;;;5113467;28;19911;-64
2023/05/19 04:42:19;;;;;;;;;;;21.40;59.80;;;;;;5113225;28;20317;-67
2023/05/19 04:44:48;;;;;;;;;;;21.20;59.60;;;;;;5113236;28;19912;-64
2023/05/19 04:47:14;;;;;;;;;;;20.90;59.60;;;;;;5113238;28;20007;-64
2023/05/19 04:49:41;;;;;;;;;;;20.60;60.50;;;;;;5113319;28;19986;-65
2023/05/19 04:52:11;;;;;;;;;;;20.50;61.10;;;;;;5113220;28;19994;-63
2023/05/19 04:54:39;;;;;;;;;;;20.20;62.00;;;;;;5113085;28;19908;-64
2023/05/19 04:57:05;;;;;;;;;;;20.30;61.90;;;;;;5112977;28;19911;-64
2023/05/19 04:59:32;;;;;;;;;;;20.10;60.90;;;;;;5113128;28;19908;-64
2023/05/19 05:01:59;;;;;;;;;;;20.00;60.80;;;;;;5113041;28;19916;-63
2023/05/19 05:04:25;;;;;;;;;;;19.90;62.00;;;;;;5112904;28;20349;-65
2023/05/19 05:06:52;;;;;;;;;;;19.90;61.80;;;;;;5112995;28;20011;-64
2023/05/19 05:09:19;;;;;;;;;;;19.90;61.50;;;;;;5113080;28;20372;-64
2023/05/19 05:11:45;;;;;;;;;;;19.90;61.50;;;;;;5113046;28;19915;-63
2023/05/19 05:14:12;;;;;;;;;;;20.00;61.60;;;;;;5112839;28;19915;-64
2023/05/19 05:16:39;;;;;;;;;;;20.30;62.40;;;;;;5112700;28;20431;-63
2023/05/19 05:19:06;;;;;;;;;;;20.40;60.80;;;;;;5116068;28;19908;-63
2023/05/19 05:21:33;;;;;;;;;;;20.40;61.40;;;;;;5115498;28;20334;-63
2023/05/19 05:24:00;;;;;;;;;;;20.40;61.30;;;;;;5115633;28;19986;-65
2023/05/19 05:26:28;;;;;;;;;;;20.20;63.30;;;;;;5115986;28;19946;-63
2023/05/19 05:28:55;;;;;;;;;;;20.40;64.90;;;;;;5116255;28;20009;-64
2023/05/19 05:31:21;;;;;;;;;;;20.40;62.90;;;;;;5116831;28;19907;-64
2023/05/19 05:33:48;;;;;;;;;;;20.40;61.60;;;;;;5116439;28;20004;-64
2023/05/19 05:36:15;;;;;;;;;;;20.70;62.00;;;;;;5116366;28;19961;-63
2023/05/19 05:38:41;;;;;;;;;;;20.90;64.20;;;;;;5116542;28;19908;-65
2023/05/19 05:41:08;;;;;;;;;;;20.80;61.60;;;;;;5116222;28;19927;-64
2023/05/19 05:43:34;;;;;;;;;;;20.80;61.50;;;;;;5116541;28;19908;-62
2023/05/19 05:46:01;;;;;;;;;;;21.00;61.20;;;;;;5112554;28;19923;-65
2023/05/19 05:48:28;;;;;;;;;;;21.20;60.50;;;;;;5116238;28;19911;-64
2023/05/19 05:50:55;;;;;;;;;;;21.30;61.10;;;;;;5116382;28;19939;-64
2023/05/19 05:53:24;;;;;;;;;;;21.30;62.60;;;;;;5116112;28;19931;-64
2023/05/19 05:55:50;;;;;;;;;;;21.40;62.70;;;;;;5115365;28;20314;-65
2023/05/19 05:58:17;;;;;;;;;;;21.40;61.70;;;;;;5115679;28;19912;-63
2023/05/19 06:00:44;;;;;;;;;;;21.50;61.20;;;;;;5115447;28;20364;-66
2023/05/19 06:03:10;;;;;;;;;;;22.10;61.00;;;;;;5115327;28;19914;-64
2023/05/19 06:05:37;;;;;;;;;;;22.40;60.40;;;;;;5114754;28;19915;-64
2023/05/19 06:08:04;;;;;;;;;;;22.50;60.90;;;;;;5114643;28;20322;-65
2023/05/19 06:10:31;;;;;;;;;;;22.60;61.20;;;;;;5115236;28;19907;-65
2023/05/19 06:12:58;;;;;;;;;;;22.60;59.80;;;;;;5115065;28;20326;-66
2023/05/19 06:15:25;;;;;;;;;;;22.70;61.70;;;;;;5115007;28;19912;-66
2023/05/19 06:17:51;;;;;;;;;;;22.40;62.80;;;;;;5115704;28;20281;-65
2023/05/19 06:20:18;;;;;;;;;;;22.00;64.60;;;;;;5115471;28;19908;-65
2023/05/19 06:22:45;;;;;;;;;;;21.70;65.90;;;;;;5114976;28;20010;-64
2023/05/19 06:25:12;;;;;;;;;;;21.20;67.50;;;;;;5114771;28;19939;-64
2023/05/19 06:27:39;;;;;;;;;;;20.60;68.10;;;;;;5115322;28;20002;-65
2023/05/19 06:30:07;;;;;;;;;;;20.10;69.70;;;;;;5114623;28;19988;-64
2023/05/19 06:32:34;;;;;;;;;;;19.50;71.90;;;;;;5115171;28;19908;-64
2023/05/19 06:35:00;;;;;;;;;;;19.10;73.40;;;;;;5114953;28;19908;-64
2023/05/19 06:37:27;;;;;;;;;;;18.80;74.80;;;;;;5115079;28;19908;-64
2023/05/19 06:39:53;;;;;;;;;;;18.50;76.70;;;;;;5114726;28;19908;-64
2023/05/19 06:42:21;;;;;;;;;;;18.20;78.30;;;;;;5115017;28;19916;-65
2023/05/19 06:44:48;;;;;;;;;;;18.00;80.20;;;;;;5114765;28;19912;-64
2023/05/19 06:47:15;;;;;;;;;;;17.70;82.30;;;;;;5114889;28;19930;-65
2023/05/19 06:49:42;;;;;;;;;;;17.50;83.40;;;;;;5114864;28;19915;-64
2023/05/19 06:52:09;;;;;;;;;;;17.40;84.80;;;;;;5114418;28;19907;-64
2023/05/19 06:54:36;;;;;;;;;;;17.20;86.00;;;;;;5114805;28;19947;-65
2023/05/19 06:57:03;;;;;;;;;;;17.10;87.90;;;;;;5114815;28;19915;-65
2023/05/19 06:59:29;;;;;;;;;;;16.90;89.00;;;;;;5114715;28;19914;-66
2023/05/19 07:01:56;;;;;;;;;;;16.80;90.00;;;;;;5112406;28;19930;-65
2023/05/19 07:04:23;;;;;;;;;;;16.70;90.60;;;;;;5110982;28;19935;-64
2023/05/19 07:06:49;;;;;;;;;;;16.50;91.30;;;;;;5113832;28;19912;-64
2023/05/19 07:09:16;;;;;;;;;;;16.30;91.60;;;;;;5114173;28;19981;-65
2023/05/19 07:11:43;;;;;;;;;;;16.10;92.00;;;;;;5113783;28;19915;-63
2023/05/19 07:14:09;;;;;;;;;;;16.10;92.50;;;;;;5113794;28;19948;-63
2023/05/19 07:16:36;;;;;;;;;;;16.00;93.20;;;;;;5113718;28;20324;-65
2023/05/19 07:19:02;;;;;;;;;;;15.90;93.50;;;;;;5113832;28;20339;-66
2023/05/19 07:21:29;;;;;;;;;;;15.80;93.90;;;;;;5113204;28;19974;-64
2023/05/19 07:23:56;;;;;;;;;;;15.70;94.40;;;;;;5113116;28;19934;-64
2023/05/19 07:26:22;;;;;;;;;;;15.60;94.80;;;;;;5113210;28;19908;-63
2023/05/19 07:28:50;;;;;;;;;;;15.50;95.50;;;;;;5113327;28;19915;-66
2023/05/19 07:31:17;;;;;;;;;;;15.40;95.90;;;;;;5113546;28;19998;-64
2023/05/19 07:33:43;;;;;;;;;;;15.40;96.40;;;;;;5113215;28;19940;-63
2023/05/19 07:36:10;;;;;;;;;;;15.30;97.00;;;;;;5111737;28;19911;-63
2023/05/19 07:38:37;;;;;;;;;;;15.20;97.60;;;;;;5112736;28;20414;-62
2023/05/19 07:41:03;;;;;;;;;;;15.20;97.90;;;;;;5112665;28;19955;-63
2023/05/19 07:43:30;;;;;;;;;;;15.10;98.40;;;;;;5112665;28;19912;-63
2023/05/19 07:45:57;;;;;;;;;;;15.00;98.90;;;;;;5112949;28;19912;-64
2023/05/19 07:48:24;;;;;;;;;;;14.90;99.00;;;;;;5106526;28;19908;-64
2023/05/19 07:50:51;;;;;;;;;;;14.80;99.20;;;;;;5103106;28;20000;-65
2023/05/19 07:53:18;;;;;;;;;;;14.80;99.30;;;;;;5113478;28;19908;-65
2023/05/19 07:55:45;;;;;;;;;;;14.70;99.20;;;;;;5113242;28;19908;-64
2023/05/19 07:58:12;;;;;;;;;;;14.70;99.60;;;;;;5109267;28;19909;-62
2023/05/19 08:00:41;;;;;;;;;;;14.60;99.90;;;;;;5092819;28;20010;-63
2023/05/19 08:03:09;;;;;;;;;;;14.60;99.90;;;;;;5092880;28;20277;-65
2023/05/19 08:05:35;;;;;;;;;;;14.50;99.90;;;;;;5097377;28;19919;-66
2023/05/19 08:08:02;;;;;;;;;;;14.40;99.90;;;;;;5110910;28;19918;-63
2023/05/19 08:10:28;;;;;;;;;;;14.40;99.90;;;;;;5112268;28;19915;-61
2023/05/19 08:12:55;;;;;;;;;;;14.40;99.90;;;;;;5112877;28;19935;-63
2023/05/19 08:15:22;;;;;;;;;;;14.30;99.90;;;;;;5112495;28;19908;-64
2023/05/19 08:17:48;;;;;;;;;;;14.20;99.90;;;;;;5112209;28;20382;-64
2023/05/19 08:20:15;;;;;;;;;;;14.20;99.90;;;;;;5099219;28;19920;-62
2023/05/19 08:22:42;;;;;;;;;;;14.10;99.90;;;;;;5092792;28;19950;-63
2023/05/19 08:25:09;;;;;;;;;;;14.10;99.90;;;;;;5103999;28;19908;-64
2023/05/19 08:27:35;;;;;;;;;;;14.00;99.90;;;;;;5112839;28;20284;-65
2023/05/19 08:30:02;;;;;;;;;;;14.00;99.90;;;;;;5101329;28;20668;-63
2023/05/19 08:32:29;;;;;;;;;;;13.90;99.90;;;;;;5092495;28;19947;-66
2023/05/19 08:34:55;;;;;;;;;;;13.90;99.90;;;;;;5102300;28;19908;-65
2023/05/19 08:37:22;;;;;;;;;;;13.90;99.90;;;;;;5112747;28;20323;-63
2023/05/19 08:39:49;;;;;;;;;;;13.80;99.90;;;;;;5094894;28;20361;-64
2023/05/19 08:42:15;;;;;;;;;;;13.80;99.90;;;;;;5092364;28;20014;-64
2023/05/19 08:44:42;;;;;;;;;;;13.80;99.90;;;;;;5081660;28;20007;-63
2023/05/19 08:47:12;;;;;;;;;;;13.70;99.90;;;;;;5112143;28;19908;-64
2023/05/19 08:49:46;;;;;;;;;;;13.70;99.90;;;;;;5110632;28;20356;-63
2023/05/19 08:52:24;;;;;;;;;;;13.70;99.90;;;;;;5109839;28;19915;-63
2023/05/19 08:54:53;;;;;;;;;;;13.70;99.90;;;;;;5109563;28;19908;-62
2023/05/19 08:57:22;;;;;;;;;;;13.60;99.90;;;;;;5110246;28;19996;-62
2023/05/19 08:59:50;;;;;;;;;;;13.60;99.90;;;;;;5107707;28;19912;-64
2023/05/19 09:02:17;;;;;;;;;;;13.60;99.90;;;;;;5111809;28;19961;-65
2023/05/19 09:04:46;;;;;;;;;;;14.80;99.90;;;;;;5111475;28;20412;-65
2023/05/19 09:07:14;;;;;;;;;;;13.60;99.90;;;;;;5109660;28;19914;-64
2023/05/19 09:09:42;;;;;;;;;;;13.60;99.90;;;;;;5106422;28;19918;-62
2023/05/19 09:12:10;;;;;;;;;;;13.60;99.90;;;;;;5108247;28;20006;-64
2023/05/19 09:14:37;;;;;;;;;;;13.60;99.90;;;;;;5111065;28;20386;-66
2023/05/19 09:17:04;;;;;;;;;;;13.50;99.90;;;;;;5110861;28;19998;-66
2023/05/19 09:19:30;;;;;;;;;;;13.50;99.90;;;;;;5111513;28;19973;-64
2023/05/19 09:22:07;;;;;;;;;;;13.40;99.90;;;;;;5107760;28;20279;-66
2023/05/19 09:24:34;;;;;;;;;;;13.40;99.90;;;;;;5110524;28;19908;-65
2023/05/19 09:27:01;;;;;;;;;;;13.40;99.90;;;;;;5107810;28;19914;-64
2023/05/19 09:29:27;;;;;;;;;;;13.40;99.90;;;;;;5110891;28;19915;-65
2023/05/19 09:32:02;;;;;;;;;;;13.40;99.90;;;;;;5110265;28;19995;-66
2023/05/19 09:34:29;;;;;;;;;;;13.20;99.90;;;;;;5108076;28;20365;-63
2023/05/19 09:36:58;;;;;;;;;;;13.20;99.90;;;;;;5111181;28;20011;-63
2023/05/19 09:39:27;;;;;;;;;;;13.20;99.90;;;;;;5104807;28;19919;-63
2023/05/19 09:41:57;;;;;;;;;;;13.10;99.90;;;;;;5108267;28;20376;-62
2023/05/19 09:44:31;;;;;;;;;;;13.10;99.90;;;;;;5107989;28;20352;-62
2023/05/19 09:46:58;;;;;;;;;;;13.10;99.90;;;;;;5111318;28;19914;-63
2023/05/19 09:49:29;;;;;;;;;;;13.00;99.90;;;;;;5111514;28;19908;-63
2023/05/19 09:51:58;;;;;;;;;;;12.90;99.90;;;;;;5110600;28;19914;-63
2023/05/19 09:54:27;;;;;;;;;;;13.00;99.90;;;;;;5108711;28;19912;-63
2023/05/19 09:57:00;;;;;;;;;;;12.90;99.90;;;;;;5111797;28;20006;-64
2023/05/19 09:59:27;;;;;;;;;;;12.80;99.90;;;;;;5110737;28;19994;-63
2023/05/19 10:01:55;;;;;;;;;;;12.80;99.90;;;;;;5109257;28;19986;-63
2023/05/19 10:04:22;;;;;;;;;;;12.70;99.90;;;;;;5110129;28;19907;-63
2023/05/19 10:06:52;;;;;;;;;;;12.70;99.90;;;;;;5114230;28;20363;-65
2023/05/19 10:09:26;;;;;;;;;;;12.60;99.90;;;;;;5110555;28;19911;-66
2023/05/19 10:11:54;;;;;;;;;;;12.50;99.90;;;;;;5112145;28;20411;-64
2023/05/19 10:14:24;;;;;;;;;;;12.40;99.90;;;;;;5114430;28;20007;-62
2023/05/19 10:16:51;;;;;;;;;;;12.40;99.90;;;;;;5111139;28;19911;-65
2023/05/19 10:19:22;;;;;;;;;;;12.40;99.90;;;;;;5114330;28;19915;-64
2023/05/19 10:21:49;;;;;;;;;;;12.40;99.90;;;;;;5114507;28;19916;-64
2023/05/19 10:24:17;;;;;;;;;;;12.40;99.90;;;;;;5112766;28;19912;-63
2023/05/19 10:26:50;;;;;;;;;;;12.40;99.90;;;;;;5114473;28;19908;-63
2023/05/19 10:29:17;;;;;;;;;;;12.30;99.90;;;;;;5111776;28;19908;-65
2023/05/19 10:31:45;;;;;;;;;;;12.30;99.90;;;;;;5114261;28;19915;-65
2023/05/19 10:34:29;;;;;;;;;;;12.30;99.90;;;;;;5112518;28;19919;-65
2023/05/19 10:36:59;;;;;;;;;;;12.30;99.90;;;;;;5111702;28;19947;-63
2023/05/19 10:39:28;;;;;;;;;;;12.30;99.90;;;;;;5111214;28;19943;-64
2023/05/19 10:41:55;;;;;;;;;;;12.20;99.90;;;;;;5111654;28;19993;-65
2023/05/19 10:44:24;;;;;;;;;;;12.20;99.90;;;;;;5111585;28;19912;-64
2023/05/19 10:46:51;;;;;;;;;;;12.10;99.90;;;;;;5114201;28;19912;-67
2023/05/19 10:49:21;;;;;;;;;;;12.10;99.90;;;;;;5114372;28;19955;-64
2023/05/19 10:51:48;;;;;;;;;;;12.00;99.90;;;;;;5114117;28;19915;-66
2023/05/19 10:54:17;;;;;;;;;;;12.00;99.90;;;;;;5112784;28;19915;-64
2023/05/19 10:56:46;;;;;;;;;;;12.00;99.90;;;;;;5114246;28;19915;-64
2023/05/19 10:59:35;;;;;;;;;;;12.00;99.90;;;;;;5110969;28;20337;-63
2023/05/19 11:02:05;;;;;;;;;;;12.00;99.90;;;;;;5111625;28;19955;-66
2023/05/19 11:04:58;;;;;;;;;;;11.90;99.90;;;;;;5112632;28;19958;-64
2023/05/19 11:07:25;;;;;;;;;;;11.90;99.90;;;;;;5108848;28;19907;-64
2023/05/19 11:09:51;;;;;;;;;;;11.80;99.90;;;;;;5109338;28;19911;-64
2023/05/19 11:12:21;;;;;;;;;;;11.80;99.90;;;;;;5111392;28;19960;-64
2023/05/19 11:14:51;;;;;;;;;;;11.80;99.90;;;;;;5112245;28;20439;-65
2023/05/19 11:17:20;;;;;;;;;;;11.70;99.90;;;;;;5113448;28;19908;-63
2023/05/19 11:19:53;;;;;;;;;;;11.70;99.90;;;;;;5113022;28;19934;-63
2023/05/19 11:22:26;;;;;;;;;;;11.70;99.90;;;;;;5111665;28;19923;-64
2023/05/19 11:24:56;;;;;;;;;;;11.60;99.90;;;;;;5109493;28;19976;-62
2023/05/19 11:27:31;;;;;;;;;;;11.50;99.90;;;;;;5113134;28;19915;-62
2023/05/19 11:29:59;;;;;;;;;;;11.40;99.90;;;;;;5110454;28;19990;-66
2023/05/19 11:32:26;;;;;;;;;;;11.40;99.90;;;;;;5112949;28;19956;-63
2023/05/19 11:34:54;;;;;;;;;;;11.40;99.90;;;;;;5109840;28;19919;-64
2023/05/19 11:37:21;;;;;;;;;;;11.30;99.90;;;;;;5113880;28;20268;-65
2023/05/19 11:39:47;;;;;;;;;;;11.30;99.90;;;;;;5110555;28;19919;-63
2023/05/19 11:42:14;;;;;;;;;;;11.20;99.90;;;;;;5092580;28;20389;-63
2023/05/19 11:44:44;;;;;;;;;;;11.20;99.90;;;;;;5110173;28;19964;-65
2023/05/19 11:47:14;;;;;;;;;;;11.20;99.90;;;;;;5112630;28;19904;-65
2023/05/19 11:49:44;;;;;;;;;;;11.10;99.90;;;;;;5112666;28;19908;-65
2023/05/19 11:52:11;;;;;;;;;;;11.20;99.90;;;;;;5112645;28;19912;-66
2023/05/19 11:54:40;;;;;;;;;;;11.10;99.90;;;;;;5111279;28;19912;-63
2023/05/19 11:57:09;;;;;;;;;;;11.10;99.90;;;;;;5112020;28;19995;-63
2023/05/19 11:59:37;;;;;;;;;;;11.00;99.90;;;;;;5110490;28;20003;-64
2023/05/19 12:02:17;;;;;;;;;;;10.90;99.90;;;;;;5112144;28;19920;-66
2023/05/19 12:04:44;;;;;;;;;;;10.80;99.90;;;;;;5108523;28;19915;-66
2023/05/19 12:07:12;;;;;;;;;;;10.80;99.90;;;;;;5112478;28;19908;-66
2023/05/19 12:09:39;;;;;;;;;;;10.80;99.90;;;;;;5109914;28;19943;-64
2023/05/19 12:12:06;;;;;;;;;;;10.70;99.90;;;;;;5112889;28;19915;-64
2023/05/19 12:14:33;;;;;;;;;;;10.80;99.90;;;;;;5109571;28;19918;-64
2023/05/19 12:17:09;;;;;;;;;;;10.80;99.90;;;;;;5112434;28;20431;-63
2023/05/19 12:19:35;;;;;;;;;;;10.70;99.90;;;;;;5111461;28;19984;-63
2023/05/19 12:22:02;;;;;;;;;;;10.80;99.90;;;;;;5112762;28;19923;-64
2023/05/19 12:24:29;;;;;;;;;;;10.70;99.90;;;;;;5112076;28;19915;-63
2023/05/19 12:27:27;;;;;;;;;;;10.60;99.90;;;;;;5105907;28;20402;-64
2023/05/19 12:29:55;;;;;;;;;;;10.70;99.90;;;;;;5085006;28;20330;-64
2023/05/19 12:32:24;;;;;;;;;;;10.60;99.90;;;;;;5113179;28;20013;-62
2023/05/19 12:34:51;;;;;;;;;;;10.60;99.90;;;;;;5107560;28;20372;-67
2023/05/19 12:37:18;;;;;;;;;;;10.50;99.90;;;;;;5100070;28;19911;-64
2023/05/19 12:39:45;;;;;;;;;;;10.50;99.90;;;;;;5109173;28;19912;-64
2023/05/19 12:42:11;;;;;;;;;;;10.50;99.90;;;;;;5108758;28;19927;-63
2023/05/19 12:44:51;;;;;;;;;;;10.50;99.90;;;;;;5092883;28;19916;-63
2023/05/19 12:47:21;;;;;;;;;;;10.50;99.90;;;;;;5092071;28;20007;-63
2023/05/19 12:49:57;;;;;;;;;;;10.50;99.90;;;;;;5091844;28;19915;-63
2023/05/19 12:52:24;;;;;;;;;;;10.50;99.90;;;;;;5092056;28;19997;-64
2023/05/19 12:55:11;;;;;;;;;;;10.50;99.90;;;;;;5092405;28;19908;-63
2023/05/19 12:57:38;;;;;;;;;;;10.40;99.90;;;;;;5100413;28;19918;-64
2023/05/19 13:00:11;;;;;;;;;;;10.30;99.90;;;;;;5112633;28;19915;-64
2023/05/19 13:02:54;;;;;;;;;;;10.30;99.90;;;;;;5112630;28;19922;-64
2023/05/19 13:05:21;;;;;;;;;;;10.40;99.90;;;;;;5109791;28;19911;-62
2023/05/19 13:07:55;;;;;;;;;;;10.30;99.90;;;;;;5101593;28;20424;-66
2023/05/19 13:10:22;;;;;;;;;;;10.30;99.90;;;;;;5112550;28;19955;-64
2023/05/19 13:12:49;;;;;;;;;;;10.20;99.90;;;;;;5112630;28;19912;-63
2023/05/19 13:15:15;;;;;;;;;;;10.20;99.90;;;;;;5112722;28;19908;-66
2023/05/19 13:17:42;;;;;;;;;;;10.20;99.90;;;;;;5110383;28;19919;-63
2023/05/19 13:20:09;;;;;;;;;;;10.20;99.90;;;;;;5112635;28;20311;-63
2023/05/19 13:22:35;;;;;;;;;;;10.20;99.90;;;;;;5112681;28;19922;-63
2023/05/19 13:25:02;;;;;;;;;;;10.10;99.90;;;;;;5112958;28;19908;-64
2023/05/19 13:27:29;;;;;;;;;;;10.10;99.90;;;;;;5106900;28;19954;-64
2023/05/19 13:29:55;;;;;;;;;;;10.00;99.90;;;;;;5111807;28;20317;-65
2023/05/19 13:32:22;;;;;;;;;;;10.00;99.90;;;;;;5092999;28;19908;-63
2023/05/19 13:34:48;;;;;;;;;;;10.00;99.90;;;;;;5092089;28;19995;-63
2023/05/19 13:37:15;;;;;;;;;;;10.00;99.90;;;;;;5100707;28;19912;-67
2023/05/19 13:39:42;;;;;;;;;;;9.90;99.90;;;;;;5092822;28;19916;-64
2023/05/19 13:42:08;;;;;;;;;;;10.00;99.90;;;;;;5096123;28;19924;-63
2023/05/19 13:44:35;;;;;;;;;;;9.90;99.90;;;;;;5095844;28;19918;-63
2023/05/19 13:47:02;;;;;;;;;;;9.90;99.90;;;;;;5102638;28;19908;-63
2023/05/19 13:49:28;;;;;;;;;;;9.90;99.90;;;;;;5116460;28;19943;-64
2023/05/19 13:51:57;;;;;;;;;;;9.90;99.90;;;;;;5116217;28;19930;-63
2023/05/19 13:54:23;;;;;;;;;;;9.90;99.90;;;;;;5116172;28;19908;-63
2023/05/19 13:56:50;;;;;;;;;;;10.00;99.90;;;;;;5108523;28;19908;-65
2023/05/19 13:59:16;;;;;;;;;;;9.90;99.90;;;;;;5095961;28;19966;-63
2023/05/19 14:01:44;;;;;;;;;;;10.00;99.90;;;;;;5096146;28;19948;-65
2023/05/19 14:04:10;;;;;;;;;;;9.90;99.90;;;;;;5095995;28;20361;-63
2023/05/19 14:06:37;;;;;;;;;;;10.00;99.90;;;;;;5113564;28;19912;-63
2023/05/19 14:09:08;;;;;;;;;;;9.90;99.90;;;;;;5116118;28;19915;-63
2023/05/19 14:11:34;;;;;;;;;;;9.90;99.90;;;;;;5116177;28;20360;-63
2023/05/19 14:14:04;;;;;;;;;;;9.90;99.90;;;;;;5116079;28;19961;-62
2023/05/19 14:16:31;;;;;;;;;;;9.90;99.90;;;;;;5107249;28;19934;-66
2023/05/19 14:18:57;;;;;;;;;;;9.90;99.90;;;;;;5115410;28;19912;-63
2023/05/19 14:21:24;;;;;;;;;;;9.90;99.90;;;;;;5116004;28;20391;-64
2023/05/19 14:23:50;;;;;;;;;;;10.00;99.90;;;;;;5116020;28;19914;-63